createdAt,value
2019-05-19T00:02:32.435Z,31.90
2019-05-19T00:05:06.251Z,35.03
2019-05-19T00:07:38.963Z,37.17
2019-05-19T00:10:11.941Z,31.30
2019-05-19T00:12:44.565Z,38.80
2019-05-19T00:15:17.342Z,39.87
2019-05-19T00:17:50.997Z,35.37
2019-05-19T00:20:23.572Z,37.03
2019-05-19T00:22:56.375Z,34.27
2019-05-19T00:25:28.998Z,30.47
2019-05-19T00:28:01.967Z,34.00
2019-05-19T00:30:34.926Z,32.50
2019-05-19T00:33:07.465Z,34.67
2019-05-19T00:35:40.055Z,34.13
2019-05-19T00:38:13.211Z,32.40
2019-05-19T00:40:45.813Z,31.13
2019-05-19T00:43:18.510Z,34.77
2019-05-19T00:45:51.465Z,37.27
2019-05-19T00:48:24.180Z,32.80
2019-05-19T00:50:56.720Z,34.63
2019-05-19T00:53:29.495Z,34.93
2019-05-19T00:56:03.195Z,36.77
2019-05-19T00:58:36.630Z,38.33
2019-05-19T01:01:09.225Z,33.83
2019-05-19T01:03:41.745Z,35.33
2019-05-19T01:06:14.470Z,37.63
2019-05-19T01:08:47.111Z,39.30
2019-05-19T01:11:19.720Z,40.57
2019-05-19T01:13:52.396Z,34.13
2019-05-19T01:16:25.172Z,36.57
2019-05-19T01:18:58.045Z,36.57
2019-05-19T01:21:31.705Z,34.97
2019-05-19T01:24:04.411Z,37.43
2019-05-19T01:26:36.991Z,40.03
2019-05-19T01:29:10.160Z,29.97
2019-05-19T01:31:43.000Z,34.17
2019-05-19T01:34:15.601Z,29.80
2019-05-19T01:36:48.152Z,35.67
2019-05-19T01:39:20.767Z,35.63
2019-05-19T01:41:53.418Z,36.90
2019-05-19T01:44:26.115Z,29.77
2019-05-19T01:46:58.936Z,46.00
2019-05-19T01:49:31.520Z,35.93
2019-05-19T01:52:04.230Z,34.23
2019-05-19T01:54:37.035Z,37.20
2019-05-19T01:57:09.663Z,32.53
2019-05-19T01:59:42.196Z,38.30
2019-05-19T02:02:14.921Z,35.73
2019-05-19T02:04:47.550Z,35.77
2019-05-19T02:07:20.251Z,39.37
2019-05-19T02:09:53.180Z,38.37
2019-05-19T02:12:25.905Z,42.60
2019-05-19T02:14:58.623Z,38.53
2019-05-19T02:17:31.498Z,42.33
2019-05-19T02:20:05.480Z,35.47
2019-05-19T02:22:38.256Z,39.30
2019-05-19T02:25:12.086Z,37.70
2019-05-19T02:27:44.863Z,41.03
2019-05-19T02:30:17.663Z,41.27
2019-05-19T02:32:50.291Z,44.07
2019-05-19T02:35:22.914Z,46.00
2019-05-19T02:37:55.599Z,41.27
2019-05-19T02:40:28.926Z,37.30
2019-05-19T02:43:03.037Z,35.93
2019-05-19T02:45:37.179Z,34.60
2019-05-19T02:48:12.055Z,37.00
2019-05-19T02:50:52.305Z,35.13
2019-05-19T02:53:21.527Z,39.10
2019-05-19T02:55:55.405Z,36.30
2019-05-19T02:58:28.392Z,36.87
2019-05-19T03:01:01.160Z,37.63
2019-05-19T03:03:33.710Z,33.60
2019-05-19T03:06:06.562Z,39.80
2019-05-19T03:08:39.260Z,37.73
2019-05-19T03:11:11.920Z,43.57
2019-05-19T03:13:45.634Z,45.23
2019-05-19T03:16:18.405Z,38.20
2019-05-19T03:18:51.316Z,45.70
2019-05-19T03:21:23.863Z,39.60
2019-05-19T03:23:56.651Z,37.03
2019-05-19T03:26:29.307Z,42.87
2019-05-19T03:29:02.100Z,41.20
2019-05-19T03:31:51.777Z,39.53
2019-05-19T03:34:25.967Z,40.97
2019-05-19T03:36:58.670Z,41.50
2019-05-19T03:39:31.474Z,42.50
2019-05-19T03:42:04.078Z,40.80
2019-05-19T03:44:37.050Z,41.77
2019-05-19T03:47:09.988Z,38.67
2019-05-19T03:49:42.760Z,39.67
2019-05-19T03:52:15.353Z,39.10
2019-05-19T03:54:48.127Z,38.00
2019-05-19T03:57:20.887Z,42.97
2019-05-19T03:59:53.391Z,44.53
2019-05-19T04:02:26.187Z,44.97
2019-05-19T04:04:58.777Z,42.20
2019-05-19T04:07:31.323Z,37.00
2019-05-19T04:10:04.071Z,42.07
2019-05-19T04:12:36.882Z,39.70
2019-05-19T04:15:10.077Z,38.00
2019-05-19T04:17:43.776Z,39.73
2019-05-19T04:20:16.721Z,37.67
2019-05-19T04:22:49.477Z,34.03
2019-05-19T04:25:22.018Z,36.73
2019-05-19T04:27:55.012Z,34.03
2019-05-19T04:30:27.715Z,33.40
2019-05-19T04:33:00.275Z,33.17
2019-05-19T04:35:34.010Z,36.07
2019-05-19T04:38:06.656Z,36.47
2019-05-19T04:40:39.501Z,30.77
2019-05-19T04:43:12.211Z,36.87
2019-05-19T04:45:44.671Z,33.43
2019-05-19T04:48:17.356Z,31.30
2019-05-19T04:50:50.650Z,34.97
2019-05-19T04:53:24.375Z,31.83
2019-05-19T04:55:57.340Z,34.07
2019-05-19T04:58:30.140Z,34.63
2019-05-19T05:01:02.752Z,38.70
2019-05-19T05:03:35.076Z,35.07
2019-05-19T05:06:07.696Z,34.33
2019-05-19T05:08:40.522Z,42.80
2019-05-19T05:11:13.356Z,34.17
2019-05-19T05:13:46.035Z,33.83
2019-05-19T05:16:18.600Z,30.47
2019-05-19T05:18:51.250Z,33.97
2019-05-19T05:21:23.820Z,33.50
2019-05-19T05:23:56.511Z,35.67
2019-05-19T05:26:29.250Z,35.30
2019-05-19T05:29:01.976Z,33.50
2019-05-19T05:31:35.991Z,35.43
2019-05-19T05:34:08.780Z,34.60
2019-05-19T05:36:41.477Z,36.13
2019-05-19T05:39:14.017Z,35.60
2019-05-19T05:41:46.786Z,31.23
2019-05-19T05:44:19.391Z,38.07
2019-05-19T05:46:52.311Z,34.93
2019-05-19T05:49:25.146Z,33.43
2019-05-19T05:51:57.940Z,33.30
2019-05-19T05:54:31.836Z,31.60
2019-05-19T05:57:04.565Z,34.07
2019-05-19T05:59:37.259Z,32.07
2019-05-19T06:02:10.080Z,35.47
2019-05-19T06:04:42.890Z,33.77
2019-05-19T06:07:15.570Z,37.90
2019-05-19T06:09:48.405Z,35.58
2019-05-19T06:12:21.195Z,36.57
2019-05-19T06:14:54.049Z,31.40
2019-05-19T06:17:27.158Z,35.52
2019-05-19T06:19:59.869Z,33.43
2019-05-19T06:22:33.716Z,35.63
2019-05-19T06:25:06.927Z,38.90
2019-05-19T06:27:39.750Z,34.63
2019-05-19T06:30:12.651Z,40.63
2019-05-19T06:32:47.030Z,36.63
2019-05-19T06:35:21.022Z,32.43
2019-05-19T06:37:53.832Z,35.30
2019-05-19T06:40:26.630Z,33.25
2019-05-19T06:42:59.220Z,33.73
2019-05-19T06:45:31.790Z,31.70
2019-05-19T06:48:04.619Z,31.68
2019-05-19T06:50:40.653Z,33.50
2019-05-19T06:53:14.331Z,32.93
2019-05-19T06:55:46.165Z,31.55
2019-05-19T06:58:19.076Z,28.98
2019-05-19T07:00:52.868Z,36.85
2019-05-19T07:03:25.735Z,35.08
2019-05-19T07:05:58.546Z,34.73
2019-05-19T07:08:31.300Z,23.27
2019-05-19T07:11:04.350Z,22.58
2019-05-19T07:13:37.548Z,25.43
2019-05-19T07:16:10.737Z,19.67
2019-05-19T07:18:44.125Z,14.60
2019-05-19T07:21:16.861Z,8.58
2019-05-19T07:23:49.885Z,7.67
2019-05-19T07:26:22.405Z,14.35
2019-05-19T07:28:58.509Z,13.93
2019-05-19T07:31:30.315Z,12.40
2019-05-19T07:34:03.298Z,20.40
2019-05-19T07:36:36.021Z,13.43
2019-05-19T07:39:09.883Z,51.20
2019-05-19T07:41:42.647Z,39.18
2019-05-19T07:44:15.770Z,24.52
2019-05-19T07:46:48.493Z,20.62
2019-05-19T07:49:21.285Z,14.15
2019-05-19T07:51:54.225Z,9.18
2019-05-19T07:54:27.355Z,13.30
2019-05-19T07:57:00.580Z,11.80
2019-05-19T07:59:33.596Z,10.28
2019-05-19T08:02:06.371Z,11.10
2019-05-19T08:04:39.078Z,12.10
2019-05-19T08:07:12.025Z,8.33
2019-05-19T08:09:45.161Z,11.20
2019-05-19T08:12:18.495Z,11.47
2019-05-19T08:14:51.590Z,9.20
2019-05-19T08:17:25.955Z,13.17
2019-05-19T08:19:59.575Z,13.53
2019-05-19T08:22:32.291Z,17.60
2019-05-19T08:25:09.308Z,13.83
2019-05-19T08:27:42.335Z,17.47
2019-05-19T08:30:16.072Z,16.87
2019-05-19T08:32:48.830Z,13.93
2019-05-19T08:35:21.810Z,16.48
2019-05-19T08:37:54.967Z,11.33
2019-05-19T08:40:27.731Z,13.28
2019-05-19T08:43:00.521Z,14.18
2019-05-19T08:45:33.586Z,12.50
2019-05-19T08:48:06.302Z,10.38
2019-05-19T08:50:39.116Z,11.35
2019-05-19T08:53:11.895Z,9.88
2019-05-19T08:55:45.439Z,10.55
2019-05-19T08:58:18.149Z,8.35
2019-05-19T09:00:51.121Z,9.73
2019-05-19T09:03:23.875Z,8.48
2019-05-19T09:05:56.514Z,10.15
